TimeAKDT,TemperatureF,Dew PointF,Humidity,Sea Level PressureIn,VisibilityMPH,Wind Direction,Wind SpeedMPH,Gust SpeedMPH,PrecipitationIn,Events,Conditions,WindDirDegrees,DateUTC
12:53 AM,57.9,55.0,90,29.96,10.0,Calm,Calm,-,N/A,,Clear,0,2013-07-11 08:53:00
1:53 AM,57.0,55.0,93,29.96,10.0,Calm,Calm,-,N/A,,Partly Cloudy,0,2013-07-11 09:53:00
2:53 AM,55.0,54.0,96,29.96,10.0,Calm,Calm,-,N/A,,Mostly Cloudy,0,2013-07-11 10:53:00
3:53 AM,55.0,53.1,93,29.96,10.0,Calm,Calm,-,0.00,,Overcast,0,2013-07-11 11:53:00
4:53 AM,55.0,53.1,93,29.97,10.0,Calm,Calm,-,N/A,,Overcast,0,2013-07-11 12:53:00
5:53 AM,55.0,53.1,93,29.97,10.0,NNW,3.5,-,0.01,Rain,Light Rain,330,2013-07-11 13:53:00
6:53 AM,55.9,53.1,90,29.97,10.0,Calm,Calm,-,0.00,,Scattered Clouds,0,2013-07-11 14:53:00
7:53 AM,57.0,54.0,89,29.97,10.0,Calm,Calm,-,N/A,,Clear,0,2013-07-11 15:53:00
8:53 AM,59.0,54.0,83,29.96,10.0,Calm,Calm,-,N/A,,Clear,0,2013-07-11 16:53:00
9:53 AM,64.9,54.0,68,29.95,10.0,Variable,3.5,-,N/A,,Clear,0,2013-07-11 17:53:00
10:53 AM,69.1,50.0,51,29.94,10.0,NW,3.5,-,N/A,,Clear,310,2013-07-11 18:53:00
11:53 AM,72.0,46.0,40,29.93,10.0,Calm,Calm,-,N/A,,Clear,0,2013-07-11 19:53:00
12:53 PM,73.0,46.0,38,29.92,10.0,Variable,4.6,-,N/A,,Clear,0,2013-07-11 20:53:00
1:53 PM,75.0,45.0,34,29.92,10.0,Variable,5.8,-,N/A,,Clear,0,2013-07-11 21:53:00
2:53 PM,75.9,46.9,36,29.91,10.0,Variable,5.8,-,N/A,,Clear,0,2013-07-11 22:53:00
3:53 PM,75.9,46.0,35,29.89,10.0,West,9.2,-,N/A,,Partly Cloudy,280,2013-07-11 23:53:00
4:53 PM,78.1,45.0,31,29.88,10.0,West,5.8,-,N/A,,Scattered Clouds,270,2013-07-12 00:53:00
5:53 PM,79.0,46.0,31,29.88,10.0,WNW,5.8,-,N/A,,Scattered Clouds,300,2013-07-12 01:53:00
6:53 PM,77.0,46.9,34,29.87,10.0,Calm,Calm,-,N/A,,Mostly Cloudy,0,2013-07-12 02:53:00
7:53 PM,73.9,48.0,40,29.88,10.0,South,8.1,-,0.00,,Overcast,190,2013-07-12 03:53:00
8:53 PM,72.0,48.9,44,29.88,10.0,South,6.9,-,N/A,,Scattered Clouds,190,2013-07-12 04:53:00
9:53 PM,72.0,50.0,46,29.89,10.0,South,5.8,-,N/A,,Overcast,180,2013-07-12 05:53:00
10:53 PM,71.1,50.0,47,29.90,10.0,SSE,4.6,-,N/A,,Overcast,160,2013-07-12 06:53:00
11:53 PM,68.0,48.0,49,29.91,10.0,Calm,Calm,-,N/A,,Scattered Clouds,0,2013-07-12 07:53:00